Accueil
METAR-TAF:

METAR-TAF

Aéroports :

Koror, Babelthuap Island, Palaos

Aéroport international Roman-Tmetuchl

latitude: 07-22N, longitude: 134-32E, altitude: 54 m

Observation

Le bulletin a été fait il y a 32 minutes, à 14:50 UTC
Vent calme
Température 24°C
Humidité 94%
Pression 1010 hPa
Visibilité: 22.5 km
Nuages épars à une hauteur de 1600 ft
Ciel couvert à une hauteur de 30000 ft

METAR: PTRO 231450Z 00000KT 14SM SCT016 OVC300 24/23 A2982

Heure: 00:22 (15:22 UTC)

Prévision

Le bulletin a été fait il y a 3 heures et 49 minutes, à 11:33 UTC
Prévision valable du 23 à 12 UTC au 24 à 12 UTC
Vent 5 kt de direction variable
Visibilité: 10 km
Nuages épars à une hauteur de 1600 ft
Nuages fragmentés à une hauteur de 12000 ft
averses à proximité

TAF: PTRO 231133Z 2312/2412 VRB05KT P6SM VCSH SCT016 BKN120

Observations et prévisions météorologiques de plus de 4000 aéroports (messages METAR et TAF).

Les stations disponibles sont représentées par des disques jaunes et rouges sur la carte.

Passer la souris dessus pour voir le nom de la station.

Cliquer dessus pour voir les observations et prévisions météorologiques.

Pour changer de carte: cliquez sur les boutons verts avec une croix noire pour zoomer, sur le bouton vert avec un tiret pour effectuer un zoom arrière, ou sur les flèches vertes pour les cartes adjacentes.


METAR-TAF: